createdAt,value
2022-10-31T00:03:03.853Z,79.6
2022-10-31T00:08:04.128Z,79.6
2022-10-31T00:13:04.019Z,79.6
2022-10-31T00:18:03.896Z,79.7
2022-10-31T00:23:03.892Z,79.7
2022-10-31T00:28:04.691Z,79.7
2022-10-31T00:33:03.984Z,79.8
2022-10-31T00:38:03.633Z,79.8
2022-10-31T00:43:04.238Z,79.9
2022-10-31T00:48:03.751Z,80.0
2022-10-31T00:53:03.755Z,80.0
2022-10-31T00:58:03.972Z,80.0
2022-10-31T01:03:03.815Z,80.0
2022-10-31T01:08:04.431Z,80.0
2022-10-31T01:13:04.406Z,80.0
2022-10-31T01:18:03.620Z,80.1
2022-10-31T01:23:04.759Z,80.2
2022-10-31T01:28:04.165Z,80.2
2022-10-31T01:33:03.681Z,80.2
2022-10-31T01:38:03.715Z,80.2
2022-10-31T01:43:03.834Z,80.2
2022-10-31T01:48:05.393Z,80.2
2022-10-31T01:53:03.560Z,80.2
2022-10-31T01:58:03.995Z,80.2
2022-10-31T02:03:04.032Z,80.3
2022-10-31T02:08:04.054Z,80.3
2022-10-31T02:13:05.121Z,80.3
2022-10-31T02:18:04.217Z,80.3
2022-10-31T02:23:03.450Z,80.4
2022-10-31T02:28:04.122Z,80.4
2022-10-31T02:33:03.821Z,80.5
2022-10-31T02:38:03.672Z,80.6
2022-10-31T02:43:04.319Z,80.6
2022-10-31T02:48:03.489Z,80.7
2022-10-31T02:53:03.478Z,80.7
2022-10-31T02:58:04.091Z,80.7
2022-10-31T03:03:03.826Z,80.7
2022-10-31T03:08:03.513Z,80.7
2022-10-31T03:13:03.747Z,80.7
2022-10-31T03:18:03.963Z,80.6
2022-10-31T03:23:03.450Z,80.5
2022-10-31T03:28:04.513Z,80.6
2022-10-31T03:33:04.033Z,80.7
2022-10-31T03:38:05.548Z,80.8
2022-10-31T03:43:03.699Z,80.8
2022-10-31T03:48:03.755Z,80.9
2022-10-31T03:53:03.371Z,80.9
2022-10-31T03:58:04.088Z,80.9
2022-10-31T04:03:03.661Z,81.0
2022-10-31T04:08:03.323Z,81.0
2022-10-31T04:13:03.714Z,81.0
2022-10-31T04:18:03.553Z,81.1
2022-10-31T04:23:03.276Z,81.2
2022-10-31T04:28:03.937Z,81.2
2022-10-31T04:33:03.725Z,81.1
2022-10-31T04:38:03.242Z,81.1
2022-10-31T04:43:03.827Z,81.0
2022-10-31T04:48:03.637Z,81.0
2022-10-31T04:53:03.525Z,81.1
2022-10-31T04:58:03.570Z,81.1
2022-10-31T05:03:03.509Z,81.1
2022-10-31T05:08:03.224Z,81.1
2022-10-31T05:13:03.856Z,81.2
2022-10-31T05:18:03.632Z,81.2
2022-10-31T05:23:03.210Z,81.3
2022-10-31T05:28:03.853Z,81.2
2022-10-31T05:33:03.465Z,81.3
2022-10-31T05:38:03.574Z,81.3
2022-10-31T05:43:03.631Z,81.3
2022-10-31T05:48:03.784Z,81.4
2022-10-31T05:53:03.117Z,81.4
2022-10-31T05:58:04.327Z,81.4
2022-10-31T06:03:03.806Z,81.4
2022-10-31T06:08:03.735Z,81.4
2022-10-31T06:13:03.126Z,81.5
2022-10-31T06:18:03.793Z,81.5
2022-10-31T06:23:03.737Z,81.6
2022-10-31T06:28:03.329Z,81.6
2022-10-31T06:33:03.363Z,81.6
2022-10-31T06:38:03.439Z,81.6
2022-10-31T06:43:03.046Z,81.6
2022-10-31T06:48:16.740Z,81.7
2022-10-31T06:53:03.131Z,81.8
2022-10-31T06:58:03.634Z,81.9
2022-10-31T07:03:03.254Z,81.9
2022-10-31T07:08:03.248Z,81.9
2022-10-31T07:13:03.307Z,81.9
2022-10-31T07:18:03.412Z,82.0
2022-10-31T07:23:03.469Z,81.9
2022-10-31T07:28:03.634Z,81.9
2022-10-31T07:33:03.003Z,81.9
2022-10-31T07:38:03.351Z,81.9
2022-10-31T07:43:03.190Z,81.9
2022-10-31T07:48:03.231Z,81.9
2022-10-31T07:53:02.970Z,82.0
2022-10-31T07:58:03.478Z,81.9
2022-10-31T08:03:03.280Z,81.9
2022-10-31T08:08:03.565Z,81.9
2022-10-31T08:13:03.117Z,82.0
2022-10-31T08:18:02.996Z,82.0
2022-10-31T08:23:03.244Z,81.9
2022-10-31T08:28:03.340Z,81.9
2022-10-31T08:33:03.913Z,81.9
2022-10-31T08:38:03.241Z,81.9
2022-10-31T08:43:02.856Z,81.8
2022-10-31T08:48:03.254Z,81.8
2022-10-31T08:53:05.601Z,81.8
2022-10-31T08:58:03.051Z,81.8
2022-10-31T09:03:02.827Z,81.7
2022-10-31T09:08:03.223Z,81.7
2022-10-31T09:13:02.794Z,81.7
2022-10-31T09:18:03.011Z,81.7
2022-10-31T09:23:02.955Z,81.7
2022-10-31T09:28:03.201Z,81.6
2022-10-31T09:33:02.778Z,81.5
2022-10-31T09:38:03.198Z,81.5
2022-10-31T09:43:02.744Z,81.4
2022-10-31T09:48:03.256Z,81.4
2022-10-31T09:53:03.219Z,81.3
2022-10-31T09:58:02.729Z,81.3
2022-10-31T10:03:02.989Z,81.2
2022-10-31T10:08:02.900Z,81.1
2022-10-31T10:13:04.989Z,80.8
2022-10-31T10:18:02.672Z,80.8
2022-10-31T10:23:03.299Z,80.7
2022-10-31T10:28:03.108Z,80.5
2022-10-31T10:33:02.711Z,80.3
2022-10-31T10:38:03.837Z,80.3
2022-10-31T10:43:02.841Z,80.1
2022-10-31T10:48:03.018Z,79.8
2022-10-31T10:53:03.107Z,79.7
2022-10-31T10:58:03.174Z,79.4
2022-10-31T11:03:03.111Z,78.8
2022-10-31T11:08:03.008Z,78.3
2022-10-31T11:13:02.899Z,78.4
2022-10-31T11:18:02.672Z,77.9
2022-10-31T11:23:02.785Z,77.7
2022-10-31T11:28:02.740Z,77.7
2022-10-31T11:33:02.919Z,77.6
2022-10-31T11:38:03.337Z,77.1
2022-10-31T11:43:02.711Z,77.0
2022-10-31T11:48:02.971Z,76.9
2022-10-31T11:53:02.506Z,75.9
2022-10-31T11:58:02.852Z,75.8
2022-10-31T12:03:02.939Z,75.6
2022-10-31T12:08:04.561Z,75.6
2022-10-31T12:13:02.705Z,75.1
2022-10-31T12:18:02.529Z,75.0
2022-10-31T12:23:03.084Z,74.8
2022-10-31T12:28:02.448Z,74.5
2022-10-31T12:33:02.846Z,74.4
2022-10-31T12:38:03.134Z,74.1
2022-10-31T12:43:03.010Z,73.8
2022-10-31T12:48:02.441Z,73.5
2022-10-31T12:53:03.140Z,73.3
2022-10-31T12:58:03.083Z,73.0
2022-10-31T13:03:02.479Z,72.8
2022-10-31T13:08:03.838Z,72.6
2022-10-31T13:13:03.002Z,72.3
2022-10-31T13:18:02.555Z,72.1
2022-10-31T13:23:02.685Z,71.9
2022-10-31T13:28:02.434Z,71.7
2022-10-31T13:33:02.888Z,71.5
2022-10-31T13:38:02.623Z,71.4
2022-10-31T13:43:02.811Z,71.1
2022-10-31T13:48:02.879Z,71.1
2022-10-31T13:53:02.726Z,70.7
2022-10-31T13:58:03.106Z,70.6
2022-10-31T14:03:02.448Z,70.4
2022-10-31T14:08:02.774Z,70.4
2022-10-31T14:13:02.357Z,70.3
2022-10-31T14:18:03.206Z,70.2
2022-10-31T14:23:02.885Z,70.1
2022-10-31T14:28:02.680Z,70.0
2022-10-31T14:33:02.341Z,70.0
2022-10-31T14:38:02.792Z,70.0
2022-10-31T14:43:02.840Z,69.9
2022-10-31T14:48:06.831Z,69.9
2022-10-31T14:53:03.565Z,69.9
2022-10-31T14:58:03.239Z,69.9
2022-10-31T15:03:02.790Z,69.9
2022-10-31T15:08:02.442Z,69.9
2022-10-31T15:13:02.738Z,69.8
2022-10-31T15:18:02.764Z,69.8
2022-10-31T15:23:02.324Z,69.7
2022-10-31T15:28:02.995Z,69.7
2022-10-31T15:33:02.337Z,69.9
2022-10-31T15:38:02.862Z,70.0
2022-10-31T15:43:02.388Z,70.2
2022-10-31T15:48:02.665Z,70.3
2022-10-31T15:53:02.565Z,70.5
2022-10-31T15:58:02.352Z,70.5
2022-10-31T16:03:02.476Z,70.5
2022-10-31T16:08:02.280Z,70.3
2022-10-31T16:13:02.641Z,70.5
2022-10-31T16:18:02.167Z,70.9
2022-10-31T16:23:02.534Z,70.9
2022-10-31T16:28:02.327Z,71.0
2022-10-31T16:33:02.640Z,71.2
2022-10-31T16:38:02.160Z,71.3
2022-10-31T16:43:02.875Z,71.3
2022-10-31T16:48:02.491Z,71.4
2022-10-31T16:53:14.721Z,71.4
2022-10-31T16:58:02.617Z,71.9
2022-10-31T17:03:02.198Z,71.9
2022-10-31T17:08:02.450Z,71.9
2022-10-31T17:13:02.023Z,72.3
2022-10-31T17:18:02.413Z,72.5
2022-10-31T17:23:02.265Z,72.6
2022-10-31T17:28:02.182Z,72.6
2022-10-31T17:33:02.383Z,72.5
2022-10-31T17:38:02.034Z,72.6
2022-10-31T17:43:02.378Z,72.5
2022-10-31T17:48:02.690Z,72.6
2022-10-31T17:53:02.945Z,72.5
2022-10-31T17:58:02.339Z,72.7
2022-10-31T18:03:02.760Z,72.8
2022-10-31T18:08:04.012Z,73.1
2022-10-31T18:13:02.193Z,73.4
2022-10-31T18:18:02.595Z,73.6
2022-10-31T18:23:01.959Z,73.8
2022-10-31T18:28:02.170Z,74.0
2022-10-31T18:33:01.995Z,74.5
2022-10-31T18:38:03.330Z,74.4
2022-10-31T18:43:02.890Z,74.1
2022-10-31T18:48:02.790Z,73.8
2022-10-31T18:53:02.338Z,74.1
2022-10-31T18:58:02.032Z,74.2
2022-10-31T19:03:02.598Z,74.1
2022-10-31T19:08:01.895Z,74.2
2022-10-31T19:13:02.215Z,74.2
2022-10-31T19:18:02.240Z,74.3
2022-10-31T19:23:02.509Z,74.5
2022-10-31T19:28:02.226Z,74.6
2022-10-31T19:33:01.852Z,75.1
2022-10-31T19:38:02.469Z,75.3
2022-10-31T19:43:02.012Z,75.4
2022-10-31T19:48:02.087Z,75.5
2022-10-31T19:53:01.820Z,75.6
2022-10-31T19:58:02.499Z,75.6
2022-10-31T20:03:02.199Z,75.6
2022-10-31T20:08:06.412Z,75.7
2022-10-31T20:13:02.046Z,75.8
2022-10-31T20:18:01.789Z,75.8
2022-10-31T20:23:02.408Z,75.9
2022-10-31T20:28:02.017Z,75.9
2022-10-31T20:33:01.932Z,75.9
2022-10-31T20:38:02.278Z,76.0
2022-10-31T20:43:01.767Z,76.0
2022-10-31T20:48:02.076Z,76.1
2022-10-31T20:53:02.237Z,76.0
2022-10-31T20:58:01.794Z,76.1
2022-10-31T21:03:01.942Z,76.3
2022-10-31T21:08:01.891Z,76.8
2022-10-31T21:13:03.431Z,77.0
2022-10-31T21:18:01.765Z,76.6
2022-10-31T21:23:03.080Z,76.6
2022-10-31T21:28:02.804Z,76.6
2022-10-31T21:33:02.434Z,76.5
2022-10-31T21:38:02.646Z,76.6
2022-10-31T21:43:02.732Z,76.6
2022-10-31T21:48:02.381Z,76.6
2022-10-31T21:53:02.743Z,76.7
2022-10-31T21:58:02.598Z,76.7
2022-10-31T22:03:01.626Z,76.7
2022-10-31T22:08:02.087Z,76.7
2022-10-31T22:13:01.725Z,76.8
2022-10-31T22:18:01.963Z,76.7
2022-10-31T22:23:01.622Z,76.8
2022-10-31T22:28:01.720Z,76.9
2022-10-31T22:33:01.850Z,76.9
2022-10-31T22:38:01.624Z,76.9
2022-10-31T22:43:02.147Z,77.0
2022-10-31T22:48:01.755Z,77.1
2022-10-31T22:53:01.553Z,77.1
2022-10-31T22:58:02.125Z,77.2
2022-10-31T23:03:01.433Z,77.3
2022-10-31T23:08:01.748Z,77.5
2022-10-31T23:13:01.556Z,77.5
2022-10-31T23:18:01.670Z,77.5
2022-10-31T23:23:01.733Z,77.6
2022-10-31T23:28:01.669Z,77.5
2022-10-31T23:33:01.847Z,77.6
2022-10-31T23:38:01.900Z,77.6
2022-10-31T23:43:01.841Z,77.6
2022-10-31T23:48:01.650Z,77.5
2022-10-31T23:53:01.398Z,77.5
2022-10-31T23:58:01.741Z,77.7
